Time;durP1;ratioP1;P1;durP2;ratioP2;P2;SDS_P1;SDS_P2;PMS_P1;PMS_P2;Temp;Humidity;BMP_temperature;BMP_pressure;BME280_temperature;BME280_humidity;BME280_pressure;Samples;Min_cycle;Max_cycle;Signal;HPM_P1;HPM_P2
2023/09/11 00:01:52;;;;;;;9.20;5.83;;;;;;;;;;5033926;28;20079;-75
2023/09/11 00:04:17;;;;;;;11.37;6.20;;;;;;;;;;5033695;28;20029;-75
2023/09/11 00:06:42;;;;;;;13.18;6.88;;;;;;;;;;5033843;28;20445;-76
2023/09/11 00:09:08;;;;;;;18.13;8.00;;;;;;;;;;5033699;28;20025;-76
2023/09/11 00:11:33;;;;;;;10.43;6.00;;;;;;;;;;5033747;28;20784;-76
2023/09/11 00:13:58;;;;;;;12.00;6.70;;;;;;;;;;5033499;28;20026;-76
2023/09/11 00:16:23;;;;;;;11.30;5.67;;;;;;;;;;5033554;28;20061;-76
2023/09/11 00:18:48;;;;;;;10.43;6.43;;;;;;;;;;5033584;28;20258;-76
2023/09/11 00:21:14;;;;;;;17.17;8.03;;;;;;;;;;5033619;28;20266;-76
2023/09/11 00:23:39;;;;;;;13.63;7.40;;;;;;;;;;5033320;28;20033;-76
2023/09/11 00:26:04;;;;;;;15.33;7.17;;;;;;;;;;5033508;28;20270;-76
2023/09/11 00:28:29;;;;;;;15.37;7.37;;;;;;;;;;5032913;28;20267;-76
2023/09/11 00:31:01;;;;;;;22.63;8.25;;;;;;;;;;5014640;28;20040;-75
2023/09/11 00:33:26;;;;;;;23.73;8.93;;;;;;;;;;5033462;28;20462;-76
2023/09/11 00:35:51;;;;;;;22.48;8.52;;;;;;;;;;5033339;28;20017;-75
2023/09/11 00:38:16;;;;;;;21.25;9.30;;;;;;;;;;5033077;28;20071;-76
2023/09/11 00:40:42;;;;;;;23.60;8.93;;;;;;;;;;5033294;28;20022;-76
2023/09/11 00:43:07;;;;;;;24.67;8.48;;;;;;;;;;5033230;28;20258;-76
2023/09/11 00:45:32;;;;;;;22.57;8.60;;;;;;;;;;5015196;28;20167;-75
2023/09/11 00:47:59;;;;;;;18.40;8.15;;;;;;;;;;5015490;28;20113;-75
2023/09/11 00:50:24;;;;;;;20.92;8.15;;;;;;;;;;5033208;28;20021;-71
2023/09/11 00:52:50;;;;;;;17.17;8.50;;;;;;;;;;5032817;28;20020;-71
2023/09/11 00:55:15;;;;;;;28.73;8.95;;;;;;;;;;5033095;28;20115;-71
2023/09/11 00:57:41;;;;;;;13.23;7.63;;;;;;;;;;5032993;28;20017;-71
2023/09/11 01:00:08;;;;;;;19.30;9.25;;;;;;;;;;5032725;28;20028;-71
2023/09/11 01:02:33;;;;;;;15.23;7.53;;;;;;;;;;5032851;28;20035;-71
2023/09/11 01:04:59;;;;;;;16.35;8.40;;;;;;;;;;5032841;28;20029;-71
2023/09/11 01:07:24;;;;;;;17.17;7.95;;;;;;;;;;5032661;28;20112;-71
2023/09/11 01:09:49;;;;;;;17.23;8.60;;;;;;;;;;5032816;28;20075;-71
2023/09/11 01:12:14;;;;;;;15.10;7.67;;;;;;;;;;5032706;28;20053;-71
2023/09/11 01:14:40;;;;;;;22.20;7.73;;;;;;;;;;5032714;28;20529;-71
2023/09/11 01:17:17;;;;;;;25.10;7.82;;;;;;;;;;5032790;28;20805;-71
2023/09/11 01:20:01;;;;;;;18.42;7.85;;;;;;;;;;5032594;28;20083;-71
2023/09/11 01:22:29;;;;;;;16.15;6.05;;;;;;;;;;5032607;28;20025;-71
2023/09/11 01:25:03;;;;;;;17.48;7.75;;;;;;;;;;5032532;28;20393;-71
2023/09/11 01:27:40;;;;;;;14.20;7.60;;;;;;;;;;5032662;28;20029;-71
2023/09/11 01:30:06;;;;;;;16.48;7.22;;;;;;;;;;5032140;28;20143;-70
2023/09/11 01:32:32;;;;;;;17.77;8.38;;;;;;;;;;5032629;28;20461;-71
2023/09/11 01:34:57;;;;;;;18.70;8.48;;;;;;;;;;5032189;28;20028;-71
2023/09/11 01:37:24;;;;;;;18.45;8.30;;;;;;;;;;5032920;28;20434;-71
2023/09/11 01:39:49;;;;;;;18.37;8.67;;;;;;;;;;5032597;28;20070;-71
2023/09/11 01:42:18;;;;;;;18.98;7.57;;;;;;;;;;5036093;28;20471;-71
2023/09/11 01:44:44;;;;;;;20.55;8.93;;;;;;;;;;5018761;28;20057;-71
2023/09/11 01:47:12;;;;;;;24.30;9.23;;;;;;;;;;5036483;28;20044;-71
2023/09/11 01:49:38;;;;;;;18.02;7.95;;;;;;;;;;5036446;28;20389;-71
2023/09/11 01:52:04;;;;;;;15.13;7.97;;;;;;;;;;5036633;28;20017;-71
2023/09/11 01:54:29;;;;;;;23.52;8.48;;;;;;;;;;5035989;28;20410;-71
2023/09/11 01:56:54;;;;;;;13.48;7.35;;;;;;;;;;5036173;28;20025;-71
2023/09/11 01:59:20;;;;;;;14.25;6.78;;;;;;;;;;5036277;28;20026;-71
2023/09/11 02:01:45;;;;;;;10.80;6.72;;;;;;;;;;5036330;28;20397;-71
2023/09/11 02:04:10;;;;;;;11.37;6.90;;;;;;;;;;5035855;28;20057;-71
2023/09/11 02:06:35;;;;;;;20.30;7.90;;;;;;;;;;5036077;28;20274;-71
2023/09/11 02:09:00;;;;;;;12.80;7.47;;;;;;;;;;5035800;28;20022;-71
2023/09/11 02:11:26;;;;;;;13.43;7.27;;;;;;;;;;5035922;28;20049;-71
2023/09/11 02:13:52;;;;;;;10.82;6.40;;;;;;;;;;5035856;28;20513;-71
2023/09/11 02:16:17;;;;;;;10.82;6.43;;;;;;;;;;5035656;28;20125;-71
2023/09/11 02:18:42;;;;;;;12.65;7.10;;;;;;;;;;5035730;28;20018;-71
2023/09/11 02:21:07;;;;;;;16.27;8.50;;;;;;;;;;5035680;28;20022;-71
2023/09/11 02:23:33;;;;;;;18.07;7.73;;;;;;;;;;5035663;28;20025;-70
2023/09/11 02:25:58;;;;;;;19.43;8.37;;;;;;;;;;5035699;28;20254;-71
2023/09/11 02:28:23;;;;;;;18.10;8.35;;;;;;;;;;5035897;28;20029;-71
2023/09/11 02:30:48;;;;;;;13.47;7.97;;;;;;;;;;5035113;28;20560;-71
2023/09/11 02:33:14;;;;;;;12.60;7.00;;;;;;;;;;5035485;28;20104;-71
2023/09/11 02:35:39;;;;;;;15.45;7.40;;;;;;;;;;5035573;28;20053;-71
2023/09/11 02:38:04;;;;;;;16.73;8.10;;;;;;;;;;5035308;28;20021;-71
2023/09/11 02:40:29;;;;;;;15.13;8.50;;;;;;;;;;5035461;28;20289;-71
2023/09/11 02:42:54;;;;;;;15.93;8.10;;;;;;;;;;5035478;28;20075;-71
2023/09/11 02:45:20;;;;;;;16.13;7.20;;;;;;;;;;5035393;28;20477;-71
2023/09/11 02:47:45;;;;;;;13.77;7.13;;;;;;;;;;5035021;28;20040;-71
2023/09/11 02:50:10;;;;;;;13.73;7.00;;;;;;;;;;5035262;28;20448;-71
2023/09/11 02:52:35;;;;;;;16.20;6.70;;;;;;;;;;5034293;28;20604;-71
2023/09/11 02:55:01;;;;;;;13.90;7.40;;;;;;;;;;5034931;28;20526;-71
2023/09/11 02:57:26;;;;;;;9.87;6.10;;;;;;;;;;5035244;28;20096;-71
2023/09/11 02:59:55;;;;;;;12.50;6.73;;;;;;;;;;5035054;28;20017;-72
2023/09/11 03:02:21;;;;;;;9.60;6.10;;;;;;;;;;5035087;28;20083;-71
2023/09/11 03:04:49;;;;;;;10.85;7.07;;;;;;;;;;5034854;28;20025;-71
2023/09/11 03:07:17;;;;;;;11.00;6.32;;;;;;;;;;5034857;28;20113;-71
2023/09/11 03:09:42;;;;;;;11.02;6.68;;;;;;;;;;5034922;28;20453;-71
2023/09/11 03:12:08;;;;;;;17.40;8.20;;;;;;;;;;5034840;28;20028;-72
2023/09/11 03:14:33;;;;;;;18.27;7.33;;;;;;;;;;5034634;28;20024;-71
2023/09/11 03:16:58;;;;;;;13.33;6.57;;;;;;;;;;5034793;28;20266;-71
2023/09/11 03:19:23;;;;;;;6.47;4.73;;;;;;;;;;5034607;28;20026;-71
2023/09/11 03:21:48;;;;;;;11.33;4.80;;;;;;;;;;5034798;28;20312;-71
2023/09/11 03:24:14;;;;;;;8.43;5.87;;;;;;;;;;5034635;28;20013;-71
2023/09/11 03:26:40;;;;;;;10.83;6.07;;;;;;;;;;5034787;28;20278;-71
2023/09/11 03:29:05;;;;;;;10.15;6.28;;;;;;;;;;5034381;28;20462;-71
2023/09/11 03:31:30;;;;;;;12.50;6.43;;;;;;;;;;5034476;28;20049;-71
2023/09/11 03:33:56;;;;;;;17.10;8.47;;;;;;;;;;5034480;28;20271;-71
2023/09/11 03:36:21;;;;;;;11.87;6.87;;;;;;;;;;5034345;28;20024;-71
2023/09/11 03:38:46;;;;;;;12.43;6.83;;;;;;;;;;5034328;28;20021;-71
2023/09/11 03:41:11;;;;;;;8.93;5.85;;;;;;;;;;5034347;28;20501;-71
2023/09/11 03:43:36;;;;;;;12.43;6.10;;;;;;;;;;5034034;28;20029;-71
2023/09/11 03:46:02;;;;;;;15.17;7.17;;;;;;;;;;5034331;28;20014;-71
2023/09/11 03:48:27;;;;;;;10.25;5.57;;;;;;;;;;5034138;28;20353;-71
2023/09/11 03:50:52;;;;;;;13.02;6.60;;;;;;;;;;5016122;28;20026;-71
2023/09/11 03:53:17;;;;;;;10.32;6.13;;;;;;;;;;5033891;28;20021;-71
2023/09/11 03:55:43;;;;;;;7.53;5.17;;;;;;;;;;5033994;28;20044;-71
2023/09/11 03:58:10;;;;;;;13.75;6.15;;;;;;;;;;5016148;28;20465;-71
2023/09/11 04:00:35;;;;;;;14.70;7.13;;;;;;;;;;5033731;28;20029;-71
2023/09/11 04:03:00;;;;;;;12.10;5.50;;;;;;;;;;5033750;28;20033;-71
2023/09/11 04:05:25;;;;;;;12.77;5.73;;;;;;;;;;5033959;28;20025;-71
2023/09/11 04:07:51;;;;;;;11.60;5.60;;;;;;;;;;5033609;28;20551;-71
2023/09/11 04:10:16;;;;;;;8.10;5.13;;;;;;;;;;5033650;28;20049;-71
2023/09/11 04:12:41;;;;;;;10.73;6.05;;;;;;;;;;5033691;28;20100;-71
2023/09/11 04:15:07;;;;;;;13.73;7.40;;;;;;;;;;5033467;28;20088;-71
2023/09/11 04:17:32;;;;;;;13.30;6.60;;;;;;;;;;5033619;28;20022;-71
2023/09/11 04:19:57;;;;;;;9.43;5.50;;;;;;;;;;5033625;28;20155;-71
2023/09/11 04:22:22;;;;;;;22.90;8.37;;;;;;;;;;5033129;28;20025;-71
2023/09/11 04:24:48;;;;;;;16.50;8.27;;;;;;;;;;5033569;28;20033;-71
2023/09/11 04:27:13;;;;;;;19.77;8.55;;;;;;;;;;5033471;28;20302;-71
2023/09/11 04:29:39;;;;;;;18.33;8.52;;;;;;;;;;5033103;28;20029;-71
2023/09/11 04:32:04;;;;;;;16.35;8.95;;;;;;;;;;5033285;28;20481;-71
2023/09/11 04:34:29;;;;;;;14.73;7.63;;;;;;;;;;5033392;28;20531;-71
2023/09/11 04:36:55;;;;;;;23.83;8.40;;;;;;;;;;5033274;28;20286;-71
2023/09/11 04:39:22;;;;;;;15.30;7.53;;;;;;;;;;5033019;28;20263;-71
2023/09/11 04:41:47;;;;;;;20.65;8.77;;;;;;;;;;5015580;28;20029;-71
2023/09/11 04:44:12;;;;;;;15.10;7.97;;;;;;;;;;5033134;28;20037;-71
2023/09/11 04:46:37;;;;;;;21.00;7.67;;;;;;;;;;5033320;28;20025;-71
2023/09/11 04:49:02;;;;;;;20.20;8.40;;;;;;;;;;5033426;28;20079;-71
2023/09/11 04:51:28;;;;;;;16.80;7.60;;;;;;;;;;5032817;28;20027;-71
2023/09/11 04:53:53;;;;;;;18.13;7.80;;;;;;;;;;5032971;28;20337;-71
2023/09/11 04:56:18;;;;;;;19.07;7.73;;;;;;;;;;5033148;28;20025;-71
2023/09/11 04:58:43;;;;;;;22.33;8.20;;;;;;;;;;5032816;28;20022;-71
2023/09/11 05:01:08;;;;;;;17.67;7.90;;;;;;;;;;5032987;28;20485;-71
2023/09/11 05:03:34;;;;;;;20.43;6.97;;;;;;;;;;5033031;28;20021;-71
2023/09/11 05:05:59;;;;;;;25.55;7.75;;;;;;;;;;5032956;28;20060;-71
2023/09/11 05:08:24;;;;;;;27.80;7.23;;;;;;;;;;5032509;28;20092;-71
2023/09/11 05:10:49;;;;;;;18.07;7.60;;;;;;;;;;5032833;28;20542;-71
2023/09/11 05:13:15;;;;;;;19.93;7.83;;;;;;;;;;5032820;28;20285;-71
2023/09/11 05:15:40;;;;;;;18.90;7.82;;;;;;;;;;5032216;28;20057;-71
2023/09/11 05:18:05;;;;;;;14.30;6.87;;;;;;;;;;5032731;28;20056;-71
2023/09/11 05:20:31;;;;;;;13.50;6.73;;;;;;;;;;5032770;28;20754;-71
2023/09/11 05:22:56;;;;;;;14.38;6.10;;;;;;;;;;5032477;28;20332;-71
2023/09/11 05:25:21;;;;;;;18.52;7.78;;;;;;;;;;5032706;28;20025;-71
2023/09/11 05:27:46;;;;;;;23.60;8.67;;;;;;;;;;5031465;28;20025;-74
2023/09/11 05:30:13;;;;;;;17.40;8.17;;;;;;;;;;5032281;28;20290;-74
2023/09/11 05:32:38;;;;;;;23.17;7.97;;;;;;;;;;5015026;28;20535;-74
2023/09/11 05:35:04;;;;;;;15.03;6.70;;;;;;;;;;5032389;28;20017;-74
2023/09/11 05:37:30;;;;;;;16.52;7.75;;;;;;;;;;5032713;28;20064;-74
2023/09/11 05:39:55;;;;;;;13.13;7.80;;;;;;;;;;5032594;28;20017;-74
2023/09/11 05:42:20;;;;;;;14.23;7.43;;;;;;;;;;5032668;28;20262;-74
2023/09/11 05:44:45;;;;;;;19.33;8.43;;;;;;;;;;5032431;28;20496;-74
2023/09/11 05:47:10;;;;;;;18.77;7.27;;;;;;;;;;5032459;28;20026;-69
2023/09/11 05:49:36;;;;;;;15.53;6.97;;;;;;;;;;5032514;28;20021;-69
2023/09/11 05:52:01;;;;;;;12.40;5.93;;;;;;;;;;5032222;28;20274;-70
2023/09/11 05:54:26;;;;;;;10.73;6.07;;;;;;;;;;5032697;28;20036;-70
2023/09/11 05:56:52;;;;;;;14.35;6.95;;;;;;;;;;5032791;28;20546;-70
2023/09/11 05:59:19;;;;;;;12.23;5.35;;;;;;;;;;5032269;28;20033;-70
2023/09/11 06:01:45;;;;;;;13.10;6.28;;;;;;;;;;5032277;28;20026;-71
2023/09/11 06:04:11;;;;;;;19.73;6.93;;;;;;;;;;5032399;28;20021;-71
2023/09/11 06:06:36;;;;;;;15.80;7.25;;;;;;;;;;5032337;28;20029;-71
2023/09/11 06:09:03;;;;;;;15.02;7.28;;;;;;;;;;5032251;28;20032;-71
2023/09/11 06:11:28;;;;;;;15.52;7.47;;;;;;;;;;5032578;28;20021;-71
2023/09/11 06:13:54;;;;;;;15.80;8.43;;;;;;;;;;5032183;28;20462;-71
2023/09/11 06:16:19;;;;;;;19.90;7.63;;;;;;;;;;5032204;28;20285;-71
2023/09/11 06:18:44;;;;;;;19.77;8.17;;;;;;;;;;5032313;28;20531;-71
2023/09/11 06:21:10;;;;;;;16.17;7.70;;;;;;;;;;5032018;28;20321;-71
2023/09/11 06:23:35;;;;;;;21.95;7.70;;;;;;;;;;5032448;28;20075;-71
2023/09/11 06:26:00;;;;;;;22.13;8.57;;;;;;;;;;5032459;28;20060;-71
2023/09/11 06:28:25;;;;;;;15.33;7.27;;;;;;;;;;5034348;28;20532;-71
2023/09/11 06:30:51;;;;;;;18.87;8.77;;;;;;;;;;5026953;28;20033;-71
2023/09/11 06:33:16;;;;;;;16.50;7.43;;;;;;;;;;5035630;28;20025;-69
2023/09/11 06:35:41;;;;;;;17.50;7.73;;;;;;;;;;5035593;28;20029;-69
2023/09/11 06:38:06;;;;;;;12.63;6.47;;;;;;;;;;5035380;28;20385;-68
2023/09/11 06:40:31;;;;;;;15.63;7.17;;;;;;;;;;5035565;28;20048;-71
2023/09/11 06:42:57;;;;;;;17.10;7.77;;;;;;;;;;5035865;28;20473;-71
2023/09/11 06:45:22;;;;;;;21.65;7.15;;;;;;;;;;5032410;28;20033;-71
2023/09/11 06:47:47;;;;;;;13.95;8.00;;;;;;;;;;5029946;28;20025;-71
2023/09/11 06:50:12;;;;;;;20.00;7.10;;;;;;;;;;5034541;28;20018;-71
2023/09/11 06:52:39;;;;;;;22.07;7.73;;;;;;;;;;5034581;28;20548;-71
2023/09/11 06:55:05;;;;;;;19.25;7.57;;;;;;;;;;5034676;28;20347;-71
2023/09/11 06:57:30;;;;;;;17.75;6.43;;;;;;;;;;5034390;28;20048;-71
2023/09/11 06:59:56;;;;;;;15.20;6.67;;;;;;;;;;5034465;28;20025;-71
2023/09/11 07:02:21;;;;;;;17.57;7.17;;;;;;;;;;5033910;28;20021;-71
2023/09/11 07:04:47;;;;;;;16.88;7.18;;;;;;;;;;5034737;28;20507;-75
2023/09/11 07:07:12;;;;;;;12.40;6.80;;;;;;;;;;5034144;28;20091;-71
2023/09/11 07:09:37;;;;;;;10.80;7.00;;;;;;;;;;5034726;28;20824;-72
2023/09/11 07:12:02;;;;;;;19.60;7.47;;;;;;;;;;5034500;28;20341;-72
2023/09/11 07:14:28;;;;;;;16.40;6.93;;;;;;;;;;5034051;28;20298;-72
2023/09/11 07:16:55;;;;;;;13.10;6.20;;;;;;;;;;5033928;28;20037;-71
2023/09/11 07:19:22;;;;;;;19.77;6.75;;;;;;;;;;5034460;28;20079;-72
2023/09/11 07:21:47;;;;;;;15.02;6.68;;;;;;;;;;5034251;28;20461;-71
2023/09/11 07:24:12;;;;;;;18.07;6.80;;;;;;;;;;5034344;28;20052;-71
2023/09/11 07:26:38;;;;;;;22.13;6.78;;;;;;;;;;5033890;28;20130;-72
2023/09/11 07:29:03;;;;;;;15.57;6.63;;;;;;;;;;5034355;28;20143;-72
2023/09/11 07:31:29;;;;;;;17.42;6.35;;;;;;;;;;5033024;28;20774;-71
2023/09/11 07:33:54;;;;;;;12.70;6.65;;;;;;;;;;5033697;28;20033;-72
2023/09/11 07:36:21;;;;;;;15.23;6.43;;;;;;;;;;5033880;28;20033;-72
2023/09/11 07:38:46;;;;;;;18.67;6.43;;;;;;;;;;5033594;28;20026;-72
2023/09/11 07:41:15;;;;;;;15.48;6.43;;;;;;;;;;5033728;28;20017;-72
2023/09/11 07:43:41;;;;;;;13.13;6.30;;;;;;;;;;5034145;28;20025;-72
2023/09/11 07:46:06;;;;;;;18.58;6.32;;;;;;;;;;5033282;28;20025;-70
2023/09/11 07:48:31;;;;;;;18.90;6.67;;;;;;;;;;5033787;28;20466;-70
2023/09/11 07:50:56;;;;;;;18.40;6.00;;;;;;;;;;5034043;28;20713;-70
2023/09/11 07:53:22;;;;;;;13.73;5.97;;;;;;;;;;5033674;28;20533;-70
2023/09/11 07:55:47;;;;;;;15.63;5.85;;;;;;;;;;5033373;28;20282;-70
2023/09/11 07:58:13;;;;;;;15.30;5.60;;;;;;;;;;5032927;28;20105;-69
2023/09/11 08:00:38;;;;;;;15.73;6.17;;;;;;;;;;5033026;28;20274;-69
2023/09/11 08:03:03;;;;;;;21.73;7.57;;;;;;;;;;5033581;28;20263;-69
2023/09/11 08:05:28;;;;;;;13.07;5.82;;;;;;;;;;5033081;28;20547;-69
2023/09/11 08:07:53;;;;;;;12.10;5.82;;;;;;;;;;5033794;28;20029;-69
2023/09/11 08:10:19;;;;;;;10.83;6.27;;;;;;;;;;5033529;28;20030;-69
2023/09/11 08:12:44;;;;;;;13.27;6.50;;;;;;;;;;5033133;28;20480;-69
2023/09/11 08:15:09;;;;;;;23.00;6.63;;;;;;;;;;5032615;28;20496;-69
2023/09/11 08:17:34;;;;;;;12.80;5.93;;;;;;;;;;5033218;28;20049;-69
2023/09/11 08:20:00;;;;;;;14.00;5.50;;;;;;;;;;5033613;28;20258;-69
2023/09/11 08:22:25;;;;;;;15.30;5.90;;;;;;;;;;5032863;28;20072;-69
2023/09/11 08:24:50;;;;;;;11.30;5.20;;;;;;;;;;5033207;28;20262;-70
2023/09/11 08:27:15;;;;;;;14.75;6.05;;;;;;;;;;5032949;28;20057;-70
2023/09/11 08:29:41;;;;;;;16.58;6.50;;;;;;;;;;5032062;28;20029;-70
2023/09/11 08:32:06;;;;;;;14.33;6.13;;;;;;;;;;5032178;28;20068;-70
2023/09/11 08:34:31;;;;;;;13.57;6.00;;;;;;;;;;5032398;28;20258;-70
2023/09/11 08:36:57;;;;;;;13.97;5.73;;;;;;;;;;5033015;28;20109;-70
2023/09/11 08:39:23;;;;;;;16.17;6.53;;;;;;;;;;5032606;28;20029;-70
2023/09/11 08:41:49;;;;;;;16.35;6.38;;;;;;;;;;5032565;28;20416;-70
2023/09/11 08:44:14;;;;;;;16.50;6.28;;;;;;;;;;5032168;28;20086;-69
2023/09/11 08:46:41;;;;;;;17.07;6.27;;;;;;;;;;5032578;28;20022;-70
2023/09/11 08:49:07;;;;;;;16.02;6.25;;;;;;;;;;5032546;28;20113;-70
2023/09/11 08:51:34;;;;;;;17.45;6.68;;;;;;;;;;5031805;28;20389;-70
2023/09/11 08:54:00;;;;;;;14.35;6.20;;;;;;;;;;5032505;28;20079;-70
2023/09/11 08:56:26;;;;;;;16.80;6.88;;;;;;;;;;5032384;28;20100;-70
2023/09/11 08:58:51;;;;;;;17.00;6.60;;;;;;;;;;5032552;28;20101;-70
2023/09/11 09:01:17;;;;;;;18.48;6.15;;;;;;;;;;5031821;28;20266;-68
2023/09/11 09:03:43;;;;;;;19.77;6.53;;;;;;;;;;5024423;28;20021;-68
2023/09/11 09:06:08;;;;;;;16.25;6.18;;;;;;;;;;5032046;28;20064;-68
2023/09/11 09:08:34;;;;;;;16.37;6.23;;;;;;;;;;5032096;28;20021;-67
2023/09/11 09:11:00;;;;;;;18.50;6.78;;;;;;;;;;5032401;28;20028;-68
2023/09/11 09:13:25;;;;;;;10.85;5.78;;;;;;;;;;5032255;28;20013;-68
2023/09/11 09:15:51;;;;;;;13.05;6.22;;;;;;;;;;5031776;28;20028;-68
2023/09/11 09:18:16;;;;;;;12.73;5.50;;;;;;;;;;5032325;28;20017;-68
2023/09/11 09:20:41;;;;;;;13.23;5.93;;;;;;;;;;5032553;28;20266;-68
2023/09/11 09:23:06;;;;;;;15.87;6.40;;;;;;;;;;5032171;28;20026;-68
2023/09/11 09:25:31;;;;;;;9.90;5.23;;;;;;;;;;5032105;28;20043;-68
2023/09/11 09:27:57;;;;;;;11.60;6.07;;;;;;;;;;5032420;28;20025;-68
2023/09/11 09:30:23;;;;;;;17.05;5.70;;;;;;;;;;5031310;28;20052;-68
2023/09/11 09:32:49;;;;;;;16.25;5.85;;;;;;;;;;5032530;28;20013;-68
2023/09/11 09:35:35;;;;;;;13.52;6.25;;;;;;;;;;5032129;28;20006;-68
2023/09/11 09:38:01;;;;;;;13.45;6.28;;;;;;;;;;5031770;28;20112;-68
2023/09/11 09:40:36;;;;;;;12.18;5.50;;;;;;;;;;5031964;28;20061;-68
2023/09/11 09:43:05;;;;;;;10.60;5.55;;;;;;;;;;5032110;28;20025;-68
2023/09/11 09:45:33;;;;;;;13.85;5.55;;;;;;;;;;5031746;28;20036;-68
2023/09/11 09:48:09;;;;;;;10.52;5.85;;;;;;;;;;5023934;28;20036;-68
2023/09/11 09:50:49;;;;;;;15.40;5.72;;;;;;;;;;5032445;28;20057;-68
2023/09/11 09:53:28;;;;;;;11.90;5.30;;;;;;;;;;5031948;28;20018;-68
2023/09/11 09:55:54;;;;;;;14.10;5.40;;;;;;;;;;5032022;28;20259;-68
2023/09/11 09:58:20;;;;;;;13.35;5.50;;;;;;;;;;5031886;28;20048;-68
2023/09/11 10:00:46;;;;;;;13.57;6.03;;;;;;;;;;5031878;28;20018;-68
2023/09/11 10:03:11;;;;;;;13.30;5.40;;;;;;;;;;5035176;28;20033;-68
2023/09/11 10:05:40;;;;;;;16.65;6.60;;;;;;;;;;5035474;28;20034;-67
2023/09/11 10:08:05;;;;;;;11.27;6.05;;;;;;;;;;5035759;28;20075;-67
2023/09/11 10:10:30;;;;;;;14.80;5.43;;;;;;;;;;5035130;28;20034;-70
2023/09/11 10:13:05;;;;;;;13.38;5.70;;;;;;;;;;5035403;28;20536;-70
2023/09/11 10:15:31;;;;;;;13.18;5.63;;;;;;;;;;5034985;28;20025;-71
2023/09/11 10:17:57;;;;;;;13.70;5.60;;;;;;;;;;5035695;28;20025;-69
2023/09/11 10:20:23;;;;;;;10.20;5.43;;;;;;;;;;5035134;28;20013;-70
2023/09/11 10:22:49;;;;;;;13.32;5.53;;;;;;;;;;5035674;28;20496;-70
2023/09/11 10:25:17;;;;;;;12.02;5.68;;;;;;;;;;5035371;28;20033;-69
2023/09/11 10:27:42;;;;;;;14.98;6.03;;;;;;;;;;5033950;28;20024;-70
2023/09/11 10:30:08;;;;;;;9.35;4.97;;;;;;;;;;5034596;28;20029;-70
2023/09/11 10:32:37;;;;;;;12.60;5.30;;;;;;;;;;5034969;28;20095;-70
2023/09/11 10:35:04;;;;;;;8.48;5.25;;;;;;;;;;5035339;28;20018;-70
2023/09/11 10:37:31;;;;;;;7.57;4.80;;;;;;;;;;5034877;28;20108;-70
2023/09/11 10:39:57;;;;;;;10.05;5.15;;;;;;;;;;5035472;28;20473;-70
2023/09/11 10:42:22;;;;;;;10.40;4.57;;;;;;;;;;5034901;28;20113;-70
2023/09/11 10:44:47;;;;;;;8.85;5.30;;;;;;;;;;5033472;28;20531;-70
2023/09/11 10:47:14;;;;;;;8.47;5.70;;;;;;;;;;5034820;28;20025;-69
2023/09/11 10:49:41;;;;;;;10.35;5.65;;;;;;;;;;5034851;28;20037;-70
2023/09/11 10:52:10;;;;;;;12.27;5.43;;;;;;;;;;5036710;28;20017;-70
2023/09/11 10:54:36;;;;;;;11.48;5.40;;;;;;;;;;5035114;28;20463;-69
2023/09/11 10:57:01;;;;;;;10.43;5.18;;;;;;;;;;5035175;28;20052;-69
2023/09/11 10:59:27;;;;;;;12.07;5.70;;;;;;;;;;5035326;28;20041;-69
2023/09/11 11:01:52;;;;;;;9.40;5.00;;;;;;;;;;5035135;28;20285;-69
2023/09/11 11:04:18;;;;;;;10.38;5.60;;;;;;;;;;5035139;28;20477;-69
2023/09/11 11:06:47;;;;;;;10.32;4.82;;;;;;;;;;5034967;28;20032;-70
2023/09/11 11:09:24;;;;;;;13.05;5.90;;;;;;;;;;5034810;28;20056;-70
2023/09/11 11:11:49;;;;;;;12.00;5.95;;;;;;;;;;5034974;28;20032;-70
2023/09/11 11:14:17;;;;;;;8.90;5.50;;;;;;;;;;5033660;28;20018;-69
2023/09/11 11:16:56;;;;;;;8.88;5.63;;;;;;;;;;5035197;28;20542;-70
2023/09/11 11:19:31;;;;;;;11.30;6.07;;;;;;;;;;5034817;28;20021;-69
2023/09/11 11:21:56;;;;;;;13.70;5.20;;;;;;;;;;5034918;28;20017;-69
2023/09/11 11:24:24;;;;;;;14.95;5.47;;;;;;;;;;5034996;28;20492;-69
2023/09/11 11:26:49;;;;;;;12.73;5.10;;;;;;;;;;5034785;28;20485;-69
2023/09/11 11:29:18;;;;;;;8.02;4.63;;;;;;;;;;5034032;28;20063;-69
2023/09/11 11:31:43;;;;;;;11.77;5.68;;;;;;;;;;5034462;28;20111;-69
2023/09/11 11:34:09;;;;;;;8.18;4.78;;;;;;;;;;5034521;28;20092;-69
2023/09/11 11:36:35;;;;;;;7.72;5.35;;;;;;;;;;5034545;28;20034;-69
2023/09/11 11:39:00;;;;;;;11.75;5.55;;;;;;;;;;5034645;28;20512;-69
2023/09/11 11:41:27;;;;;;;9.63;5.27;;;;;;;;;;5034433;28;20029;-69
2023/09/11 11:43:53;;;;;;;9.95;5.25;;;;;;;;;;5034505;28;20035;-69
2023/09/11 11:46:21;;;;;;;9.55;5.68;;;;;;;;;;5034553;28;20021;-69
2023/09/11 11:48:46;;;;;;;11.07;5.65;;;;;;;;;;5034227;28;20028;-69
2023/09/11 11:51:11;;;;;;;14.37;6.00;;;;;;;;;;5027252;28;20029;-68
2023/09/11 11:53:38;;;;;;;8.20;5.77;;;;;;;;;;5033678;28;20071;-68
2023/09/11 11:56:04;;;;;;;10.25;5.15;;;;;;;;;;5026040;28;20071;-69
2023/09/11 11:58:29;;;;;;;11.18;5.15;;;;;;;;;;5033045;28;20030;-69
2023/09/11 12:00:58;;;;;;;9.38;5.30;;;;;;;;;;5025200;28;20025;-69
2023/09/11 12:03:24;;;;;;;13.60;5.43;;;;;;;;;;5033640;28;20086;-71
2023/09/11 12:05:49;;;;;;;6.70;5.35;;;;;;;;;;5033434;28;20033;-71
2023/09/11 12:08:14;;;;;;;18.42;6.00;;;;;;;;;;5033645;28;20100;-71
2023/09/11 12:10:48;;;;;;;10.18;5.50;;;;;;;;;;5033634;28;20112;-72
2023/09/11 12:13:17;;;;;;;9.88;5.30;;;;;;;;;;5032635;28;20037;-71
2023/09/11 12:15:42;;;;;;;12.13;5.07;;;;;;;;;;5033380;28;20071;-71
2023/09/11 12:18:12;;;;;;;10.73;5.15;;;;;;;;;;5033714;28;20471;-69
2023/09/11 12:20:37;;;;;;;11.45;5.18;;;;;;;;;;5033668;28;20025;-69
2023/09/11 12:23:02;;;;;;;12.32;5.05;;;;;;;;;;5033875;28;20505;-71
2023/09/11 12:25:28;;;;;;;12.80;5.47;;;;;;;;;;5033953;28;20137;-71
2023/09/11 12:27:54;;;;;;;8.05;4.93;;;;;;;;;;5033013;28;20100;-71
2023/09/11 12:30:19;;;;;;;7.82;4.57;;;;;;;;;;5033039;28;20041;-71
2023/09/11 12:32:45;;;;;;;12.73;5.53;;;;;;;;;;5033019;28;20408;-71
2023/09/11 12:35:10;;;;;;;8.48;4.93;;;;;;;;;;5033054;28;20030;-71
2023/09/11 12:37:40;;;;;;;11.27;5.50;;;;;;;;;;5033190;28;20018;-71
2023/09/11 12:40:08;;;;;;;8.55;4.90;;;;;;;;;;5032755;28;20029;-71
2023/09/11 12:42:34;;;;;;;9.32;4.80;;;;;;;;;;5032501;28;20079;-71
2023/09/11 12:45:00;;;;;;;9.90;4.90;;;;;;;;;;5032918;28;20021;-70
2023/09/11 12:47:25;;;;;;;8.63;5.80;;;;;;;;;;5032602;28;20018;-71
2023/09/11 12:49:50;;;;;;;13.10;5.07;;;;;;;;;;5032734;28;20358;-71
2023/09/11 12:52:16;;;;;;;11.43;5.47;;;;;;;;;;5032246;28;20255;-71
2023/09/11 12:54:41;;;;;;;8.70;5.30;;;;;;;;;;5032756;28;20018;-71
2023/09/11 12:57:07;;;;;;;7.93;4.97;;;;;;;;;;5032220;28;20258;-71
2023/09/11 12:59:32;;;;;;;8.40;5.25;;;;;;;;;;5032108;28;20022;-71
2023/09/11 13:02:03;;;;;;;9.75;5.22;;;;;;;;;;5032562;28;20063;-71
2023/09/11 13:04:28;;;;;;;10.05;5.28;;;;;;;;;;5032445;28;20033;-71
2023/09/11 13:06:53;;;;;;;10.05;5.00;;;;;;;;;;5032421;28;20025;-71
2023/09/11 13:09:20;;;;;;;12.20;5.70;;;;;;;;;;5032321;28;20021;-70
2023/09/11 13:11:46;;;;;;;13.65;5.40;;;;;;;;;;5032144;28;20018;-70
2023/09/11 13:14:11;;;;;;;8.45;5.43;;;;;;;;;;5024612;28;20042;-70
2023/09/11 13:16:37;;;;;;;11.77;5.67;;;;;;;;;;5032409;28;20382;-70
2023/09/11 13:19:02;;;;;;;9.07;5.47;;;;;;;;;;5032227;28;20287;-70
2023/09/11 13:21:27;;;;;;;11.77;5.60;;;;;;;;;;5032457;28;20525;-71
2023/09/11 13:23:52;;;;;;;13.77;5.50;;;;;;;;;;5032409;28;20013;-71
2023/09/11 13:26:17;;;;;;;12.40;5.33;;;;;;;;;;5031835;28;20048;-70
2023/09/11 13:28:43;;;;;;;8.13;5.60;;;;;;;;;;5032178;28;20731;-70
2023/09/11 13:31:08;;;;;;;11.30;5.97;;;;;;;;;;5031675;28;20279;-70
2023/09/11 13:33:33;;;;;;;8.33;5.53;;;;;;;;;;5031763;28;20290;-70
2023/09/11 13:35:58;;;;;;;8.53;4.77;;;;;;;;;;5031863;28;20040;-71
2023/09/11 13:38:23;;;;;;;10.67;4.77;;;;;;;;;;5036449;28;20465;-70
2023/09/11 13:40:49;;;;;;;16.43;5.30;;;;;;;;;;5035548;28;20025;-70
2023/09/11 13:43:14;;;;;;;12.93;5.73;;;;;;;;;;5033471;28;20013;-71
2023/09/11 13:45:39;;;;;;;11.57;5.67;;;;;;;;;;5030541;28;20017;-71
2023/09/11 13:48:04;;;;;;;9.93;6.03;;;;;;;;;;5035868;28;20496;-70
2023/09/11 13:50:30;;;;;;;8.13;4.45;;;;;;;;;;5035912;28;20021;-70
2023/09/11 13:52:55;;;;;;;11.15;4.70;;;;;;;;;;5036406;28;20028;-71
2023/09/11 13:55:20;;;;;;;7.37;5.30;;;;;;;;;;5035119;28;20057;-71
2023/09/11 13:57:46;;;;;;;9.23;5.23;;;;;;;;;;5035942;28;20495;-70
2023/09/11 14:00:11;;;;;;;12.60;5.73;;;;;;;;;;5035747;28;20080;-70
2023/09/11 14:02:36;;;;;;;10.68;5.35;;;;;;;;;;5035586;28;20266;-71
2023/09/11 14:05:02;;;;;;;10.60;5.32;;;;;;;;;;5035792;28;20496;-70
2023/09/11 14:07:27;;;;;;;16.90;5.72;;;;;;;;;;5035788;28;20037;-70
2023/09/11 14:09:52;;;;;;;10.23;4.80;;;;;;;;;;5035340;28;20473;-70
2023/09/11 14:12:18;;;;;;;12.05;5.63;;;;;;;;;;5035405;28;20385;-70
2023/09/11 14:14:43;;;;;;;9.07;5.13;;;;;;;;;;5035683;28;20104;-71
2023/09/11 14:17:08;;;;;;;10.17;4.77;;;;;;;;;;5035249;28;20459;-70
2023/09/11 14:19:34;;;;;;;14.30;4.90;;;;;;;;;;5035206;28;20022;-70
2023/09/11 14:21:59;;;;;;;9.52;4.72;;;;;;;;;;5035338;28;20028;-70
2023/09/11 14:24:24;;;;;;;12.03;5.33;;;;;;;;;;5035510;28;20013;-70